Weather History for KBPC - February, 2014

Change the Weather History Date:

Sunday, February 9, 2014

  Actual Average (KBGD) Record (KBGD)
Temperature  
Mean Temperature 24 °F 41 °F  
Max Temperature 28 °F 54 °F 81 °F (1976)
Min Temperature 19 °F 28 °F 1 °F (2011)
Degree Days  
Heating Degree Days 40 24  
Month to date heating degree days 219  
Since 1 July heating degree days 2571  
Cooling Degree Days 0 0  
Month to date cooling degree days 0  
Year to date cooling degree days 0  
Moisture  
Dew Point 24 °F    
Average Humidity 97    
Maximum Humidity 100    
Minimum Humidity 93    
Precipitation  
Precipitation 0.00 in 0.03 in 0.29 in (1986)
Month to date precipitation 0.23  
Year to date precipitation 0.82  
Snow  
Snow 0.00 in - 5.10 in (1986)
Month to date snowfall  
Since 1 July snowfall  
Snow Depth -    
Sea Level Pressure  
Sea Level Pressure 30.09 in    
Wind  
Wind Speed 8 mph (NE)    
Max Wind Speed 15 mph    
Max Gust Speed 16 mph    
Visibility 4 miles    
Events Fog , Snow    
T = Trace of Precipitation, MM = Missing Value Source: NWS Daily Summary

Daily Weather History Graph

Daily Weather History Graph

Search for Another Location

Airport or City:

Trip Planner

Search our weather history database for the weather conditions in past years. The results will help you decide how hot, cold, wet, or windy it might be!

Date:

Astronomy

Feb. 09, 2014 Rise Set
Actual Time 7:37 AM CST 6:19 PM CST
Civil Twilight 7:10 AM CST 6:46 PM CST
Nautical Twilight 6:40 AM CST 7:16 PM CST
Astronomical Twilight 6:10 AM CST 7:46 PM CST
Moon 2:04 PM CST (2/9) 3:40 AM CST (2/9)
Length of Visible Light 11h 35m
Length of Day
10h 42m
Waxing Gibbous, 77% of the Moon is Illuminated
Feb 9
Waxing Gibbous
Feb 14
Full
Feb 22
Last Quarter
Mar 1
New
Mar 8
First Quarter

Hourly Weather History & Observations

Time (CST) Temp. Windchill Dew Point Humidity Pressure Visibility Wind Dir Wind Speed Gust Speed Precip Events Conditions
12:15 AM 28.4 °F 22.2 °F 26.6 °F 93% 29.97 in 5.0 mi West 5.8 mph - N/A   Clear
12:35 AM 28.4 °F 24.6 °F 26.6 °F 93% 29.97 in 5.0 mi WNW 3.5 mph - N/A   Clear
12:55 AM 28.4 °F 24.6 °F 26.6 °F 93% 29.97 in 5.0 mi WNW 3.5 mph - N/A   Clear
1:15 AM 28.4 °F - 26.6 °F 93% 29.97 in 5.0 mi Calm Calm - N/A   Clear
1:35 AM 28.4 °F 24.6 °F 28.4 °F 100% 29.97 in 7.0 mi SW 3.5 mph - N/A   Clear
1:55 AM 28.4 °F 22.2 °F 26.6 °F 93% 29.97 in 7.0 mi SW 5.8 mph - N/A   Clear
2:15 AM 26.6 °F - 26.6 °F 100% 29.97 in 7.0 mi Calm Calm - N/A   Clear
2:35 AM 28.4 °F - 28.4 °F 100% 29.96 in 10.0 mi Calm Calm - N/A   Clear
2:55 AM 26.6 °F 18.2 °F 26.6 °F 100% 29.97 in 5.0 mi NNE 8.1 mph - N/A   Clear
3:15 AM 23.0 °F 15.8 °F 23.0 °F 100% 29.98 in 3.0 mi NE 5.8 mph - N/A   Clear
3:35 AM 23.0 °F 15.8 °F 23.0 °F 100% 29.97 in 3.0 mi NE 5.8 mph - N/A   Clear
3:55 AM 24.8 °F 16.9 °F 24.8 °F 100% 29.99 in 4.0 mi ENE 6.9 mph - N/A   Clear
4:15 AM 26.6 °F 19.1 °F 24.8 °F 93% 29.99 in 3.0 mi ENE 6.9 mph - N/A   Clear
4:35 AM 23.0 °F 10.1 °F 23.0 °F 100% 29.98 in 2.5 mi NNE 15.0 mph - N/A   Mostly Cloudy
4:55 AM 23.0 °F 11.7 °F 23.0 °F 100% 29.97 in 1.2 mi NE 11.5 mph - N/A   Overcast
5:15 AM 23.0 °F 11.7 °F 23.0 °F 100% 30.00 in 0.8 mi NE 11.5 mph - N/A   Overcast
5:35 AM 23.0 °F 13.1 °F 23.0 °F 100% 30.04 in 0.8 mi NNE 9.2 mph - N/A   Overcast
5:55 AM 23.0 °F 13.1 °F 23.0 °F 100% 30.04 in 0.8 mi NE 9.2 mph - N/A   Overcast
6:15 AM 23.0 °F 11.7 °F 23.0 °F 100% 30.03 in 0.5 mi NE 11.5 mph - N/A Fog Light Freezing Fog
6:35 AM 24.8 °F 16.1 °F 23.0 °F 93% 30.03 in 0.5 mi NE 8.1 mph - N/A Fog Light Freezing Fog
6:55 AM 24.8 °F 12.9 °F 24.8 °F 100% 30.03 in 0.5 mi NE 13.8 mph - N/A Snow Light Snow
7:15 AM 26.6 °F 17.5 °F 24.8 °F 93% 30.07 in 1.0 mi NNE 9.2 mph - N/A   Overcast
7:35 AM 26.6 °F 17.5 °F 26.6 °F 100% 30.08 in 2.0 mi NE 9.2 mph - N/A   Overcast
7:55 AM 26.6 °F 18.2 °F 26.6 °F 100% 30.09 in 2.5 mi NE 8.1 mph - N/A   Overcast
8:15 AM 26.6 °F 16.2 °F 24.8 °F 93% 30.09 in 2.0 mi NNE 11.5 mph - N/A   Overcast
8:35 AM 26.6 °F 15.7 °F 24.8 °F 93% 30.10 in 1.8 mi NE 12.7 mph 16.1 mph N/A   Overcast
8:55 AM 26.6 °F 15.7 °F 24.8 °F 93% 30.10 in 2.0 mi NE 12.7 mph - N/A   Overcast
9:15 AM 26.6 °F 15.7 °F 24.8 °F 93% 30.09 in 2.5 mi NE 12.7 mph 16.1 mph N/A   Overcast
9:35 AM 26.6 °F 17.5 °F 24.8 °F 93% 30.10 in 2.5 mi NE 9.2 mph - N/A   Overcast
9:55 AM 26.6 °F 16.8 °F 24.8 °F 93% 30.11 in 2.0 mi NE 10.4 mph - N/A   Overcast
10:15 AM 26.6 °F 18.2 °F 24.8 °F 93% 30.12 in 2.5 mi NE 8.1 mph - N/A   Overcast
10:35 AM 26.6 °F 18.2 °F 24.8 °F 93% 30.13 in 2.5 mi NNE 8.1 mph - N/A   Overcast
10:55 AM 26.6 °F 19.1 °F 24.8 °F 93% 30.14 in 3.0 mi NNE 6.9 mph - N/A   Overcast
11:15 AM 26.6 °F 18.2 °F 26.6 °F 100% 30.14 in 3.0 mi NNE 8.1 mph - N/A   Overcast
11:35 AM 26.6 °F 17.5 °F 26.6 °F 100% 30.14 in 3.0 mi NNE 9.2 mph - N/A   Overcast
11:55 AM 26.6 °F 17.5 °F 26.6 °F 100% 30.14 in 5.0 mi NNE 9.2 mph - N/A   Overcast
12:15 PM 26.6 °F 16.8 °F 26.6 °F 100% 30.15 in 7.0 mi NNE 10.4 mph - N/A   Overcast
12:35 PM 26.6 °F 17.5 °F 26.6 °F 100% 30.13 in 10.0 mi NNE 9.2 mph - N/A   Overcast
12:55 PM 26.6 °F 19.1 °F 26.6 °F 100% 30.13 in 10.0 mi NNE 6.9 mph - N/A   Overcast
1:15 PM 26.6 °F 18.2 °F 26.6 °F 100% 30.13 in 7.0 mi NNE 8.1 mph - N/A   Overcast
1:35 PM 26.6 °F 18.2 °F 26.6 °F 100% 30.12 in 7.0 mi NNE 8.1 mph - N/A   Overcast
1:55 PM 26.6 °F 16.8 °F 26.6 °F 100% 30.10 in 7.0 mi NE 10.4 mph - N/A   Overcast
2:15 PM 26.6 °F 18.2 °F 24.8 °F 93% 30.10 in 7.0 mi NE 8.1 mph - N/A   Overcast
2:35 PM 26.6 °F 17.5 °F 24.8 °F 93% 30.10 in 7.0 mi NE 9.2 mph - N/A   Overcast
2:55 PM 26.6 °F 19.1 °F 24.8 °F 93% 30.10 in 7.0 mi NE 6.9 mph - N/A   Overcast
3:15 PM 26.6 °F 19.1 °F 24.8 °F 93% 30.10 in 7.0 mi NE 6.9 mph - N/A   Overcast
3:35 PM 26.6 °F 16.8 °F 24.8 °F 93% 30.09 in 7.0 mi NE 10.4 mph - N/A   Overcast
3:55 PM 26.6 °F 16.8 °F 24.8 °F 93% 30.09 in 7.0 mi NNE 10.4 mph - N/A   Overcast
4:15 PM 26.6 °F 16.8 °F 24.8 °F 93% 30.10 in 10.0 mi NNE 10.4 mph - N/A   Overcast
4:35 PM 23.0 °F 13.1 °F 23.0 °F 100% 30.10 in 3.0 mi NE 9.2 mph - N/A   Overcast
4:55 PM 23.0 °F 13.1 °F 23.0 °F 100% 30.08 in 2.0 mi ENE 9.2 mph - N/A   Overcast
5:15 PM 23.0 °F 11.7 °F 23.0 °F 100% 30.09 in 2.0 mi ENE 11.5 mph - N/A   Overcast
5:35 PM 23.0 °F 12.4 °F 23.0 °F 100% 30.09 in 1.2 mi ENE 10.4 mph - N/A   Overcast
5:55 PM 23.0 °F 11.7 °F 23.0 °F 100% 30.11 in 1.2 mi NE 11.5 mph - N/A   Overcast
6:15 PM 23.0 °F 11.7 °F 23.0 °F 100% 30.10 in 1.2 mi NE 11.5 mph - N/A   Overcast
6:35 PM 23.0 °F 11.7 °F 23.0 °F 100% 30.12 in 2.0 mi NE 11.5 mph - N/A   Overcast
6:55 PM 23.0 °F 11.7 °F 21.2 °F 93% 30.12 in 3.0 mi NE 11.5 mph - N/A   Overcast
7:15 PM 23.0 °F 11.7 °F 21.2 °F 93% 30.15 in 3.0 mi NE 11.5 mph - N/A   Overcast
7:35 PM 23.0 °F 11.7 °F 21.2 °F 93% 30.14 in 3.0 mi NE 11.5 mph - N/A   Overcast
7:55 PM 23.0 °F 12.4 °F 21.2 °F 93% 30.14 in 2.5 mi ENE 10.4 mph - N/A   Overcast
8:15 PM 23.0 °F 11.7 °F 21.2 °F 93% 30.14 in 1.8 mi NE 11.5 mph - N/A   Overcast
8:35 PM 21.2 °F 9.5 °F 21.2 °F 100% 30.16 in 2.5 mi NE 11.5 mph - N/A   Overcast
8:55 PM 21.2 °F 10.9 °F 21.2 °F 100% 30.17 in 3.0 mi NE 9.2 mph - N/A   Overcast
9:15 PM 21.2 °F 9.5 °F 21.2 °F 100% 30.17 in 4.0 mi NE 11.5 mph - N/A   Overcast
9:35 PM 21.2 °F 11.7 °F 21.2 °F 100% 30.19 in 4.0 mi NNE 8.1 mph - N/A   Overcast
9:55 PM 21.2 °F 10.1 °F 21.2 °F 100% 30.18 in 3.0 mi NE 10.4 mph - N/A   Overcast
10:15 PM 21.2 °F 9.5 °F 21.2 °F 100% 30.19 in 3.0 mi NE 11.5 mph - N/A   Overcast
10:35 PM 21.2 °F 9.5 °F 21.2 °F 100% 30.22 in 4.0 mi NNE 11.5 mph - N/A   Overcast
10:55 PM 21.2 °F 10.1 °F 21.2 °F 100% 30.23 in 3.0 mi NE 10.4 mph - N/A   Overcast
11:15 PM 21.2 °F 9.5 °F 21.2 °F 100% 30.23 in 3.0 mi NNE 11.5 mph - N/A   Overcast
11:35 PM 21.2 °F 8.9 °F 19.4 °F 93% 30.24 in 3.0 mi NE 12.7 mph - N/A   Overcast
11:55 PM 19.4 °F 6.6 °F 19.4 °F 100% 30.25 in 5.0 mi NNE 12.7 mph - N/A   Overcast